createdAt,value
2022-08-20T00:00:23.779Z,94.28
2022-08-20T00:01:23.812Z,94.38
2022-08-20T00:02:23.763Z,94.18
2022-08-20T00:03:25.671Z,95.18
2022-08-20T00:04:23.722Z,94.98
2022-08-20T00:05:23.698Z,95.68
2022-08-20T00:06:23.685Z,96.23
2022-08-20T00:07:23.681Z,96.53
2022-08-20T00:08:23.669Z,96.43
2022-08-20T00:09:23.630Z,96.63
2022-08-20T00:10:23.637Z,96.53
2022-08-20T00:11:23.600Z,96.93
2022-08-20T00:12:23.760Z,96.83
2022-08-20T00:13:23.569Z,97.08
2022-08-20T00:14:23.566Z,96.77
2022-08-20T00:15:23.536Z,97.63
2022-08-20T00:16:23.516Z,97.97
2022-08-20T00:17:23.501Z,97.78
2022-08-20T00:18:23.508Z,98.18
2022-08-20T00:19:23.477Z,98.23
2022-08-20T00:20:23.448Z,98.48
2022-08-20T00:21:23.440Z,98.48
2022-08-20T00:22:23.424Z,98.88
2022-08-20T00:23:23.401Z,98.88
2022-08-20T00:24:23.405Z,99.38
2022-08-20T00:25:23.368Z,99.08
2022-08-20T00:26:23.351Z,99.18
2022-08-20T00:27:23.332Z,98.63
2022-08-20T00:28:23.318Z,99.02
2022-08-20T00:29:23.310Z,99.99
2022-08-20T00:30:23.299Z,99.48
2022-08-20T00:31:23.275Z,99.83
2022-08-20T00:32:23.248Z,99.73
2022-08-20T00:33:23.234Z,99.83
2022-08-20T00:34:23.213Z,99.63
2022-08-20T00:35:23.219Z,99.83
2022-08-20T00:36:32.703Z,99.99
2022-08-20T00:37:23.164Z,99.93
2022-08-20T00:38:23.155Z,99.99
2022-08-20T00:39:23.136Z,99.99
2022-08-20T00:40:23.315Z,99.99
2022-08-20T00:41:23.097Z,99.99
2022-08-20T00:42:23.081Z,99.99
2022-08-20T00:43:23.062Z,99.99
2022-08-20T00:44:23.055Z,99.99
2022-08-20T00:45:23.034Z,99.99
2022-08-20T00:46:31.662Z,99.99
2022-08-20T00:47:23.028Z,99.99
2022-08-20T00:48:22.981Z,99.99
2022-08-20T00:49:22.961Z,99.99
2022-08-20T00:50:22.945Z,99.99
2022-08-20T00:51:22.924Z,99.99
2022-08-20T00:52:22.926Z,99.99
2022-08-20T00:53:22.893Z,99.99
2022-08-20T00:54:22.872Z,99.99
2022-08-20T00:55:22.858Z,99.99
2022-08-20T00:56:22.843Z,99.99
2022-08-20T00:57:22.839Z,99.99
2022-08-20T00:58:22.809Z,99.99
2022-08-20T00:59:22.785Z,99.99
2022-08-20T01:00:22.774Z,99.99
2022-08-20T01:01:22.804Z,99.99
2022-08-20T01:02:22.785Z,99.99
2022-08-20T01:03:22.716Z,99.99
2022-08-20T01:04:22.702Z,99.99
2022-08-20T01:05:22.701Z,99.99
2022-08-20T01:06:22.672Z,99.99
2022-08-20T01:07:22.675Z,99.99
2022-08-20T01:08:22.636Z,99.99
2022-08-20T01:09:33.314Z,99.99
2022-08-20T01:10:22.623Z,99.99
2022-08-20T01:11:22.598Z,99.99
2022-08-20T01:12:22.561Z,99.99
2022-08-20T01:13:22.550Z,99.99
2022-08-20T01:14:22.532Z,99.99
2022-08-20T01:15:22.512Z,99.99
2022-08-20T01:16:22.518Z,99.99
2022-08-20T01:17:22.477Z,99.99
2022-08-20T01:18:22.464Z,99.99
2022-08-20T01:19:30.043Z,99.99
2022-08-20T01:20:22.433Z,99.99
2022-08-20T01:21:22.424Z,99.99
2022-08-20T01:22:22.394Z,99.99
2022-08-20T01:23:22.376Z,99.99
2022-08-20T01:24:22.359Z,99.99
2022-08-20T01:25:22.338Z,99.99
2022-08-20T01:26:22.329Z,99.99
2022-08-20T01:27:22.336Z,99.99
2022-08-20T01:28:22.297Z,99.99
2022-08-20T01:29:22.276Z,99.99
2022-08-20T01:30:22.256Z,99.99
2022-08-20T01:31:22.237Z,99.99
2022-08-20T01:32:22.223Z,99.99
2022-08-20T01:33:22.219Z,99.99
2022-08-20T01:34:22.189Z,99.99
2022-08-20T01:35:22.169Z,99.99
2022-08-20T01:36:22.169Z,99.99
2022-08-20T01:37:22.135Z,99.99
2022-08-20T01:38:22.126Z,99.99
2022-08-20T01:39:22.118Z,99.99
2022-08-20T01:40:22.087Z,99.99
2022-08-20T01:41:28.039Z,99.99
2022-08-20T01:42:22.053Z,99.99
2022-08-20T01:43:22.136Z,99.99
2022-08-20T01:44:22.018Z,99.99
2022-08-20T01:45:22.001Z,99.99
2022-08-20T01:46:21.990Z,99.99
2022-08-20T01:47:21.968Z,99.99
2022-08-20T01:48:21.947Z,99.99
2022-08-20T01:49:23.041Z,99.99
2022-08-20T01:50:21.919Z,99.99
2022-08-20T01:51:21.898Z,99.99
2022-08-20T01:52:21.883Z,99.99
2022-08-20T01:53:21.864Z,99.99
2022-08-20T01:54:21.846Z,99.99
2022-08-20T01:55:21.854Z,99.99
2022-08-20T01:56:21.811Z,99.99
2022-08-20T01:57:21.804Z,99.99
2022-08-20T01:58:21.794Z,99.99
2022-08-20T01:59:21.761Z,99.99
2022-08-20T02:00:21.934Z,99.99
2022-08-20T02:01:21.773Z,99.99
2022-08-20T02:02:21.711Z,99.99
2022-08-20T02:03:21.691Z,99.99
2022-08-20T02:04:21.690Z,99.99
2022-08-20T02:05:21.671Z,99.99
2022-08-20T02:06:21.638Z,99.99
2022-08-20T02:07:21.636Z,99.99
2022-08-20T02:08:21.605Z,99.99
2022-08-20T02:09:21.587Z,99.99
2022-08-20T02:10:21.591Z,99.99
2022-08-20T02:11:21.556Z,99.99
2022-08-20T02:12:21.530Z,99.99
2022-08-20T02:13:21.523Z,99.99
2022-08-20T02:14:21.517Z,99.99
2022-08-20T02:15:30.731Z,99.99
2022-08-20T02:16:21.471Z,99.99
2022-08-20T02:17:21.474Z,99.99
2022-08-20T02:18:21.437Z,99.99
2022-08-20T02:19:21.417Z,99.99
2022-08-20T02:20:21.405Z,99.99
2022-08-20T02:21:21.383Z,99.99
2022-08-20T02:22:21.527Z,99.99
2022-08-20T02:23:21.377Z,99.99
2022-08-20T02:24:21.336Z,99.99
2022-08-20T02:25:23.046Z,99.99
2022-08-20T02:26:21.299Z,99.99
2022-08-20T02:27:21.283Z,99.99
2022-08-20T02:28:21.320Z,99.99
2022-08-20T02:29:21.252Z,99.99
2022-08-20T02:30:27.514Z,99.99
2022-08-20T02:31:21.210Z,99.99
2022-08-20T02:32:25.141Z,99.99
2022-08-20T02:33:24.094Z,99.99
2022-08-20T02:34:22.945Z,99.99
2022-08-20T02:35:21.143Z,99.99
2022-08-20T02:36:21.131Z,99.99
2022-08-20T02:37:21.115Z,99.99
2022-08-20T02:38:21.110Z,99.99
2022-08-20T02:39:21.079Z,99.99
2022-08-20T02:40:27.325Z,99.99
2022-08-20T02:41:21.042Z,99.99
2022-08-20T02:42:21.025Z,99.99
2022-08-20T02:43:21.007Z,99.99
2022-08-20T02:44:21.019Z,99.99
2022-08-20T02:45:20.974Z,99.99
2022-08-20T02:46:20.964Z,99.99
2022-08-20T02:47:20.941Z,99.99
2022-08-20T02:48:21.357Z,99.99
2022-08-20T02:49:20.926Z,99.99
2022-08-20T02:50:20.890Z,99.99
2022-08-20T02:51:30.582Z,99.99
2022-08-20T02:52:20.852Z,99.99
2022-08-20T02:53:20.845Z,99.99
2022-08-20T02:54:20.845Z,99.99
2022-08-20T02:55:27.274Z,99.99
2022-08-20T02:56:20.807Z,99.99
2022-08-20T02:57:20.776Z,99.99
2022-08-20T02:58:20.755Z,99.99
2022-08-20T02:59:20.759Z,99.99
2022-08-20T03:00:20.724Z,99.99
2022-08-20T03:01:20.749Z,99.99
2022-08-20T03:02:20.689Z,99.99
2022-08-20T03:03:20.669Z,99.99
2022-08-20T03:04:20.655Z,99.99
2022-08-20T03:05:20.639Z,99.99
2022-08-20T03:06:20.616Z,99.99
2022-08-20T03:07:20.619Z,99.99
2022-08-20T03:08:20.584Z,99.99
2022-08-20T03:09:20.573Z,99.99
2022-08-20T03:10:20.550Z,99.99
2022-08-20T03:11:20.534Z,99.99
2022-08-20T03:12:20.517Z,99.99
2022-08-20T03:13:20.516Z,99.99
2022-08-20T03:14:20.486Z,99.99
2022-08-20T03:15:20.464Z,99.99
2022-08-20T03:16:20.468Z,99.99
2022-08-20T03:17:20.430Z,99.99
2022-08-20T03:18:20.432Z,99.99
2022-08-20T03:19:20.394Z,99.99
2022-08-20T03:20:20.379Z,99.99
2022-08-20T03:21:20.378Z,99.99
2022-08-20T03:22:20.349Z,99.99
2022-08-20T03:23:20.350Z,99.99
2022-08-20T03:24:20.312Z,99.99
2022-08-20T03:25:20.295Z,99.99
2022-08-20T03:26:20.279Z,99.99
2022-08-20T03:27:20.543Z,99.99
2022-08-20T03:28:20.265Z,99.99
2022-08-20T03:29:20.223Z,99.99
2022-08-20T03:30:20.235Z,99.99
2022-08-20T03:31:20.194Z,99.99
2022-08-20T03:32:20.179Z,99.99
2022-08-20T03:33:20.206Z,99.99
2022-08-20T03:34:20.148Z,99.99
2022-08-20T03:35:20.144Z,99.99
2022-08-20T03:36:28.002Z,99.99
2022-08-20T03:37:20.100Z,99.99
2022-08-20T03:38:29.243Z,99.99
2022-08-20T03:39:20.055Z,99.99
2022-08-20T03:40:20.041Z,99.99
2022-08-20T03:41:20.042Z,99.99
2022-08-20T03:42:20.028Z,99.99
2022-08-20T03:43:19.997Z,99.99
2022-08-20T03:44:19.972Z,99.99
2022-08-20T03:45:20.662Z,99.99
2022-08-20T03:46:23.297Z,99.99
2022-08-20T03:47:19.938Z,99.99
2022-08-20T03:48:19.903Z,99.99
2022-08-20T03:49:19.890Z,99.99
2022-08-20T03:50:23.155Z,99.99
2022-08-20T03:51:19.868Z,99.99
2022-08-20T03:52:19.839Z,99.99
2022-08-20T03:53:19.819Z,99.99
2022-08-20T03:54:19.799Z,99.99
2022-08-20T03:55:19.784Z,99.99
2022-08-20T03:56:19.792Z,99.99
2022-08-20T03:57:19.755Z,99.99
2022-08-20T03:58:19.749Z,99.99
2022-08-20T03:59:19.723Z,99.99
2022-08-20T04:00:19.700Z,99.99
2022-08-20T04:01:45.115Z,99.99
2022-08-20T04:02:19.670Z,99.99
2022-08-20T04:03:19.677Z,99.99
2022-08-20T04:04:19.633Z,99.99
2022-08-20T04:05:19.618Z,99.99
2022-08-20T04:06:19.598Z,99.99
2022-08-20T04:07:19.580Z,99.99
2022-08-20T04:08:19.570Z,99.99
2022-08-20T04:09:19.584Z,99.99
2022-08-20T04:10:19.524Z,99.99
2022-08-20T04:11:19.530Z,99.99
2022-08-20T04:12:19.499Z,99.99
2022-08-20T04:13:19.475Z,99.99
2022-08-20T04:14:20.664Z,99.99
2022-08-20T04:15:19.442Z,99.99
2022-08-20T04:16:19.560Z,99.99
2022-08-20T04:17:19.412Z,99.99
2022-08-20T04:18:19.463Z,99.99
2022-08-20T04:19:19.377Z,99.99
2022-08-20T04:20:19.439Z,99.99
2022-08-20T04:21:19.341Z,99.99
2022-08-20T04:22:19.322Z,99.99
2022-08-20T04:23:19.306Z,99.99
2022-08-20T04:24:31.201Z,99.99
2022-08-20T04:25:19.263Z,99.99
2022-08-20T04:26:19.268Z,99.99
2022-08-20T04:27:19.233Z,99.99
2022-08-20T04:28:19.218Z,99.99
2022-08-20T04:29:19.214Z,99.99
2022-08-20T04:30:19.207Z,99.99
2022-08-20T04:31:23.178Z,99.99
2022-08-20T04:32:19.148Z,99.99
2022-08-20T04:33:19.242Z,99.99
2022-08-20T04:34:19.113Z,99.99
2022-08-20T04:35:19.090Z,99.99
2022-08-20T04:36:19.084Z,99.99
2022-08-20T04:37:19.075Z,99.99
2022-08-20T04:38:19.045Z,99.99
2022-08-20T04:39:19.021Z,99.99
2022-08-20T04:40:19.009Z,99.99
2022-08-20T04:41:23.145Z,99.99
2022-08-20T04:42:18.970Z,99.99
2022-08-20T04:43:18.963Z,99.99
2022-08-20T04:44:18.938Z,99.99
2022-08-20T04:45:18.929Z,99.99
2022-08-20T04:46:18.901Z,99.99
2022-08-20T04:47:18.970Z,99.99
2022-08-20T04:48:18.868Z,99.99
2022-08-20T04:49:18.856Z,99.99
2022-08-20T04:50:18.842Z,99.99
2022-08-20T04:51:18.917Z,99.99
2022-08-20T04:52:18.834Z,99.99
2022-08-20T04:53:22.721Z,99.99
2022-08-20T04:54:18.762Z,99.99
2022-08-20T04:55:18.751Z,99.99
2022-08-20T04:56:18.720Z,99.99
2022-08-20T04:57:18.727Z,99.99
2022-08-20T04:58:18.707Z,99.99
2022-08-20T04:59:18.674Z,99.99
2022-08-20T05:00:18.650Z,99.99
2022-08-20T05:01:18.671Z,99.99
2022-08-20T05:02:19.106Z,99.99
2022-08-20T05:03:18.619Z,99.99
2022-08-20T05:04:18.581Z,99.99
2022-08-20T05:05:18.571Z,99.99
2022-08-20T05:06:18.550Z,99.99
2022-08-20T05:07:18.550Z,99.99
2022-08-20T05:08:20.087Z,99.99
2022-08-20T05:09:18.500Z,99.99
2022-08-20T05:10:18.476Z,99.99
2022-08-20T05:11:35.013Z,99.99
2022-08-20T05:12:18.441Z,99.99
2022-08-20T05:13:18.446Z,99.99
2022-08-20T05:14:18.412Z,99.99
2022-08-20T05:15:18.416Z,99.99
2022-08-20T05:16:18.376Z,99.99
2022-08-20T05:17:18.357Z,99.99
2022-08-20T05:18:18.336Z,99.99
2022-08-20T05:19:18.333Z,99.99
2022-08-20T05:20:18.319Z,99.99
2022-08-20T05:21:18.287Z,99.99
2022-08-20T05:22:18.267Z,99.99
2022-08-20T05:23:18.253Z,99.99
2022-08-20T05:24:18.250Z,99.99
2022-08-20T05:25:18.220Z,99.99
2022-08-20T05:26:18.201Z,99.99
2022-08-20T05:27:24.655Z,99.99
2022-08-20T05:28:18.167Z,99.99
2022-08-20T05:29:18.166Z,99.99
2022-08-20T05:30:18.125Z,99.99
2022-08-20T05:31:18.122Z,99.99
2022-08-20T05:32:18.099Z,99.99
2022-08-20T05:33:18.077Z,99.99
2022-08-20T05:34:18.073Z,99.99
2022-08-20T05:35:18.043Z,99.99
2022-08-20T05:36:18.025Z,99.99
2022-08-20T05:37:18.009Z,99.99
2022-08-20T05:38:17.991Z,99.99
2022-08-20T05:39:17.974Z,99.99
2022-08-20T05:40:18.081Z,99.99
2022-08-20T05:41:29.078Z,99.99
2022-08-20T05:42:17.920Z,99.99
2022-08-20T05:43:17.904Z,99.99
2022-08-20T05:44:17.888Z,99.99
2022-08-20T05:45:17.892Z,99.99
2022-08-20T05:46:17.863Z,99.99
2022-08-20T05:47:17.833Z,99.99
2022-08-20T05:48:17.819Z,99.99
2022-08-20T05:49:17.794Z,99.99
2022-08-20T05:50:20.666Z,99.99
2022-08-20T05:51:17.776Z,99.99
2022-08-20T05:52:17.759Z,99.99
2022-08-20T05:53:17.735Z,99.99
2022-08-20T05:54:17.714Z,99.99
2022-08-20T05:55:17.695Z,99.99
2022-08-20T05:56:17.694Z,99.99
2022-08-20T05:57:17.692Z,99.99
2022-08-20T05:58:17.640Z,99.99
2022-08-20T05:59:19.967Z,99.99
2022-08-20T06:00:17.614Z,99.99
2022-08-20T06:01:17.643Z,99.99
2022-08-20T06:02:17.594Z,99.99
2022-08-20T06:03:17.553Z,99.99
2022-08-20T06:04:17.536Z,99.99
2022-08-20T06:05:17.517Z,99.99
2022-08-20T06:06:36.757Z,99.99
2022-08-20T06:07:17.483Z,99.99
2022-08-20T06:08:17.488Z,99.99
2022-08-20T06:09:30.653Z,99.99
2022-08-20T06:10:17.434Z,99.99
2022-08-20T06:11:17.420Z,99.99
2022-08-20T06:12:17.412Z,99.99
2022-08-20T06:13:17.400Z,99.99
2022-08-20T06:14:17.363Z,99.99
2022-08-20T06:15:17.357Z,99.99
2022-08-20T06:16:17.327Z,99.99
2022-08-20T06:17:17.313Z,99.99
2022-08-20T06:18:27.746Z,99.99
2022-08-20T06:19:17.297Z,99.99
2022-08-20T06:20:17.258Z,99.99
2022-08-20T06:21:17.253Z,99.99
2022-08-20T06:22:21.619Z,99.99
2022-08-20T06:23:17.220Z,99.99
2022-08-20T06:24:17.215Z,99.99
2022-08-20T06:25:17.184Z,99.99
2022-08-20T06:26:17.156Z,99.99
2022-08-20T06:27:17.153Z,99.99
2022-08-20T06:28:17.124Z,99.99
2022-08-20T06:29:17.106Z,99.99
2022-08-20T06:30:17.105Z,99.99
2022-08-20T06:31:17.077Z,99.99
2022-08-20T06:32:17.103Z,99.99
2022-08-20T06:33:17.035Z,99.99
2022-08-20T06:34:17.016Z,99.99
2022-08-20T06:35:19.894Z,99.99
2022-08-20T06:36:18.888Z,99.99
2022-08-20T06:37:16.967Z,99.99
2022-08-20T06:38:16.979Z,99.99
2022-08-20T06:39:16.932Z,99.99
2022-08-20T06:40:17.005Z,99.99
2022-08-20T06:41:16.941Z,99.99
2022-08-20T06:42:20.824Z,99.99
2022-08-20T06:43:16.856Z,99.99
2022-08-20T06:44:16.842Z,99.99
2022-08-20T06:45:16.826Z,99.99
2022-08-20T06:46:16.823Z,99.99
2022-08-20T06:47:16.807Z,99.99
2022-08-20T06:48:16.772Z,99.99
2022-08-20T06:49:16.755Z,99.99
2022-08-20T06:50:16.758Z,99.99
2022-08-20T06:51:16.719Z,99.99
2022-08-20T06:52:16.750Z,99.99
2022-08-20T06:53:16.713Z,99.99
2022-08-20T06:54:16.677Z,99.99
2022-08-20T06:55:16.678Z,99.99
2022-08-20T06:56:16.661Z,99.99
2022-08-20T06:57:16.613Z,99.99
2022-08-20T06:58:30.492Z,99.99
2022-08-20T06:59:16.593Z,99.99
2022-08-20T07:00:16.565Z,99.99
2022-08-20T07:01:16.618Z,99.99
2022-08-20T07:02:16.538Z,99.99
2022-08-20T07:03:16.539Z,99.99
2022-08-20T07:04:16.500Z,99.99
2022-08-20T07:05:16.494Z,99.99
2022-08-20T07:06:16.463Z,99.99
2022-08-20T07:07:16.462Z,99.99
2022-08-20T07:08:16.444Z,99.99
2022-08-20T07:09:16.411Z,99.99
2022-08-20T07:10:16.403Z,99.99
2022-08-20T07:11:16.377Z,99.99
2022-08-20T07:12:16.357Z,99.99
2022-08-20T07:13:16.364Z,99.99
2022-08-20T07:14:16.319Z,99.99
2022-08-20T07:15:16.305Z,99.99
2022-08-20T07:16:16.291Z,99.99
2022-08-20T07:17:16.271Z,99.99
2022-08-20T07:18:16.278Z,99.99
2022-08-20T07:19:16.259Z,99.99
2022-08-20T07:20:16.217Z,99.99
2022-08-20T07:21:16.204Z,99.99
2022-08-20T07:22:16.183Z,99.99
2022-08-20T07:23:16.199Z,99.99
2022-08-20T07:24:16.169Z,99.99
2022-08-20T07:25:16.137Z,99.99
2022-08-20T07:26:16.162Z,99.99
2022-08-20T07:27:16.099Z,99.99
2022-08-20T07:28:16.086Z,99.99
2022-08-20T07:29:16.068Z,99.99
2022-08-20T07:30:16.107Z,99.99
2022-08-20T07:31:16.180Z,99.99
2022-08-20T07:32:16.026Z,99.99
2022-08-20T07:33:15.997Z,99.99
2022-08-20T07:34:16.008Z,99.99
2022-08-20T07:35:15.958Z,99.99
2022-08-20T07:36:15.973Z,99.99
2022-08-20T07:37:15.932Z,99.99
2022-08-20T07:38:15.930Z,99.99
2022-08-20T07:39:15.899Z,99.99
2022-08-20T07:40:15.944Z,99.99
2022-08-20T07:41:15.886Z,99.99
2022-08-20T07:42:15.854Z,99.99
2022-08-20T07:43:15.828Z,99.99
2022-08-20T07:44:15.809Z,99.99
2022-08-20T07:45:15.803Z,99.99
2022-08-20T07:46:15.805Z,99.99
2022-08-20T07:47:15.791Z,99.99
2022-08-20T07:48:30.991Z,99.99
2022-08-20T07:49:15.732Z,99.99
2022-08-20T07:50:15.714Z,99.99
2022-08-20T07:51:15.684Z,99.99
2022-08-20T07:52:15.679Z,99.99
2022-08-20T07:53:15.659Z,99.99
2022-08-20T07:54:15.667Z,99.99
2022-08-20T07:55:15.612Z,99.99
2022-08-20T07:56:15.620Z,99.99
2022-08-20T07:57:15.590Z,99.99
2022-08-20T07:58:15.564Z,99.99
2022-08-20T07:59:15.583Z,99.99
2022-08-20T08:00:15.546Z,99.99
2022-08-20T08:01:15.620Z,99.99
2022-08-20T08:02:15.501Z,99.99
2022-08-20T08:03:15.474Z,99.99
2022-08-20T08:04:15.463Z,99.99
2022-08-20T08:05:15.466Z,99.99
2022-08-20T08:06:15.449Z,99.99
2022-08-20T08:07:15.418Z,99.99
2022-08-20T08:08:15.411Z,99.99
2022-08-20T08:09:15.376Z,99.99
2022-08-20T08:10:15.374Z,99.99
2022-08-20T08:11:15.348Z,99.99
2022-08-20T08:12:15.357Z,99.99
2022-08-20T08:13:15.301Z,99.99
2022-08-20T08:14:15.302Z,99.99
2022-08-20T08:15:15.302Z,99.99
2022-08-20T08:16:15.245Z,99.96
2022-08-20T08:17:15.254Z,99.86
2022-08-20T08:18:15.233Z,99.76
2022-08-20T08:19:15.201Z,99.99
2022-08-20T08:20:15.194Z,99.99
2022-08-20T08:21:15.181Z,99.41
2022-08-20T08:22:15.150Z,99.91
2022-08-20T08:23:24.789Z,99.05
2022-08-20T08:24:19.961Z,99.99
2022-08-20T08:25:15.100Z,99.99
2022-08-20T08:26:15.904Z,99.99
2022-08-20T08:27:15.057Z,99.99
2022-08-20T08:28:15.033Z,99.99
2022-08-20T08:29:15.036Z,99.99
2022-08-20T08:30:15.002Z,99.36
2022-08-20T08:31:14.983Z,99.01
2022-08-20T08:32:14.990Z,99.99
2022-08-20T08:33:14.948Z,98.40
2022-08-20T08:34:14.932Z,99.56
2022-08-20T08:35:14.939Z,99.87
2022-08-20T08:36:14.912Z,99.76
2022-08-20T08:37:14.885Z,99.16
2022-08-20T08:38:14.861Z,99.41
2022-08-20T08:39:14.849Z,99.31
2022-08-20T08:40:14.897Z,99.81
2022-08-20T08:41:14.812Z,99.61
2022-08-20T08:42:14.823Z,99.91
2022-08-20T08:43:14.776Z,99.96
2022-08-20T08:44:14.777Z,99.76
2022-08-20T08:45:14.750Z,99.26
2022-08-20T08:46:14.726Z,99.66
2022-08-20T08:47:14.715Z,99.51
2022-08-20T08:48:18.450Z,99.36
2022-08-20T08:49:14.693Z,99.87
2022-08-20T08:50:14.658Z,99.36
2022-08-20T08:51:14.630Z,99.46
2022-08-20T08:52:14.659Z,99.99
2022-08-20T08:53:14.620Z,99.06
2022-08-20T08:54:14.582Z,98.10
2022-08-20T08:55:14.566Z,99.01
2022-08-20T08:56:14.549Z,99.26
2022-08-20T08:57:14.534Z,99.21
2022-08-20T08:58:16.960Z,98.40
2022-08-20T08:59:14.530Z,99.41
2022-08-20T09:00:14.483Z,99.01
2022-08-20T09:01:54.580Z,99.61
2022-08-20T09:02:14.489Z,99.46
2022-08-20T09:03:14.427Z,99.66
2022-08-20T09:04:14.419Z,99.66
2022-08-20T09:05:14.416Z,98.86
2022-08-20T09:06:14.381Z,98.36
2022-08-20T09:07:14.353Z,99.46
2022-08-20T09:08:17.034Z,98.60
2022-08-20T09:09:14.317Z,98.56
2022-08-20T09:10:14.307Z,98.46
2022-08-20T09:11:14.309Z,99.36
2022-08-20T09:12:14.268Z,98.66
2022-08-20T09:13:14.253Z,98.56
2022-08-20T09:14:14.261Z,98.96
2022-08-20T09:15:14.217Z,99.16
2022-08-20T09:16:14.201Z,98.36
2022-08-20T09:17:14.199Z,98.56
2022-08-20T09:18:14.166Z,98.25
2022-08-20T09:19:14.168Z,98.36
2022-08-20T09:20:14.132Z,98.46
2022-08-20T09:21:14.134Z,98.61
2022-08-20T09:22:14.101Z,97.31
2022-08-20T09:23:14.078Z,96.95
2022-08-20T09:24:14.072Z,97.15
2022-08-20T09:25:14.064Z,97.15
2022-08-20T09:26:14.030Z,96.95
2022-08-20T09:27:14.032Z,97.05
2022-08-20T09:28:13.991Z,97.25
2022-08-20T09:29:13.991Z,98.01
2022-08-20T09:30:13.985Z,96.50
2022-08-20T09:31:13.936Z,96.91
2022-08-20T09:32:13.945Z,97.11
2022-08-20T09:33:13.906Z,97.11
2022-08-20T09:34:13.898Z,95.30
2022-08-20T09:35:13.873Z,96.70
2022-08-20T09:36:29.096Z,97.20
2022-08-20T09:37:13.849Z,97.41
2022-08-20T09:38:13.843Z,97.41
2022-08-20T09:39:13.800Z,97.36
2022-08-20T09:40:13.876Z,96.45
2022-08-20T09:41:13.792Z,97.06
2022-08-20T09:42:13.757Z,94.59
2022-08-20T09:43:13.735Z,95.44
2022-08-20T09:44:13.753Z,95.90
2022-08-20T09:45:13.704Z,95.10
2022-08-20T09:46:13.688Z,95.30
2022-08-20T09:47:13.686Z,95.30
2022-08-20T09:48:13.653Z,96.70
2022-08-20T09:49:13.658Z,96.36
2022-08-20T09:50:13.637Z,96.66
2022-08-20T09:51:13.598Z,95.15
2022-08-20T09:52:13.580Z,95.71
2022-08-20T09:53:13.566Z,95.91
2022-08-20T09:54:13.555Z,94.20
2022-08-20T09:55:13.553Z,94.35
2022-08-20T09:56:13.509Z,94.31
2022-08-20T09:57:13.498Z,94.46
2022-08-20T09:58:13.498Z,94.06
2022-08-20T09:59:13.465Z,95.16
2022-08-20T10:00:13.473Z,94.82
2022-08-20T10:01:14.019Z,94.46
2022-08-20T10:02:13.410Z,94.82
2022-08-20T10:03:13.400Z,94.31
2022-08-20T10:04:13.377Z,94.92
2022-08-20T10:05:13.390Z,94.31
2022-08-20T10:06:13.362Z,94.92
2022-08-20T10:07:13.327Z,94.31
2022-08-20T10:08:13.310Z,94.12
2022-08-20T10:09:13.295Z,94.37
2022-08-20T10:10:13.301Z,94.31
2022-08-20T10:11:13.261Z,94.71
2022-08-20T10:12:13.244Z,93.91
2022-08-20T10:13:15.297Z,93.01
2022-08-20T10:14:13.228Z,92.66
2022-08-20T10:15:13.190Z,93.36
2022-08-20T10:16:13.179Z,94.51
2022-08-20T10:17:13.154Z,94.82
2022-08-20T10:18:13.161Z,94.92
2022-08-20T10:19:13.154Z,93.57
2022-08-20T10:20:13.116Z,92.31
2022-08-20T10:21:13.091Z,92.41
2022-08-20T10:22:13.103Z,93.17
2022-08-20T10:23:13.070Z,94.07
2022-08-20T10:24:13.045Z,92.36
2022-08-20T10:25:13.023Z,90.20
2022-08-20T10:26:13.009Z,91.11
2022-08-20T10:27:12.991Z,92.07
2022-08-20T10:28:12.995Z,92.27
2022-08-20T10:29:12.955Z,92.97
2022-08-20T10:30:12.984Z,92.67
2022-08-20T10:31:12.927Z,91.77
2022-08-20T10:32:12.935Z,90.86
2022-08-20T10:33:12.888Z,90.86
2022-08-20T10:34:12.903Z,92.57
2022-08-20T10:35:12.868Z,92.97
2022-08-20T10:36:12.844Z,91.47
2022-08-20T10:37:12.825Z,92.97
2022-08-20T10:39:54.915Z,91.20
2022-08-20T10:40:54.811Z,91.01
2022-08-20T10:41:54.785Z,91.20
2022-08-20T10:42:54.765Z,91.20
2022-08-20T10:43:54.750Z,91.51
2022-08-20T10:44:54.748Z,91.20
2022-08-20T10:45:54.722Z,92.71
2022-08-20T10:46:57.001Z,92.51
2022-08-20T10:47:54.683Z,92.41
2022-08-20T10:48:54.666Z,91.15
2022-08-20T10:49:54.665Z,91.51
2022-08-20T10:50:54.654Z,91.55
2022-08-20T10:51:54.615Z,90.91
2022-08-20T10:52:54.601Z,91.51
2022-08-20T10:53:54.585Z,91.71
2022-08-20T10:54:54.582Z,91.05
2022-08-20T10:55:54.551Z,91.85
2022-08-20T10:56:54.534Z,91.25
2022-08-20T10:57:54.517Z,92.01
2022-08-20T10:58:54.501Z,90.75
2022-08-20T10:59:54.500Z,91.06
2022-08-20T11:00:54.468Z,90.78
2022-08-20T11:01:54.497Z,90.29
2022-08-20T11:02:54.437Z,88.95
2022-08-20T11:03:54.415Z,86.07
2022-08-20T11:04:54.399Z,85.57
2022-08-20T11:05:54.413Z,85.67
2022-08-20T11:06:54.376Z,83.71
2022-08-20T11:07:56.115Z,83.55
2022-08-20T11:08:57.036Z,83.85
2022-08-20T11:09:54.332Z,84.15
2022-08-20T11:10:54.310Z,86.77
2022-08-20T11:11:54.313Z,83.53
2022-08-20T11:12:54.281Z,84.09
2022-08-20T11:13:54.264Z,83.35
2022-08-20T11:14:54.246Z,82.02
2022-08-20T11:15:54.246Z,80.56
2022-08-20T11:16:54.238Z,80.42
2022-08-20T11:17:54.214Z,82.12
2022-08-20T11:18:54.191Z,80.96
2022-08-20T11:19:54.188Z,82.26
2022-08-20T11:20:54.164Z,79.60
2022-08-20T11:21:54.166Z,81.10
2022-08-20T11:22:54.188Z,79.14
2022-08-20T11:23:54.120Z,81.24
2022-08-20T11:24:54.104Z,81.46
2022-08-20T11:25:54.093Z,82.32
2022-08-20T11:26:54.095Z,81.34
2022-08-20T11:27:54.065Z,79.75
2022-08-20T11:28:54.069Z,78.79
2022-08-20T11:29:54.046Z,77.93
2022-08-20T11:30:54.026Z,77.40
2022-08-20T11:31:54.010Z,79.80
2022-08-20T11:32:54.016Z,79.76
2022-08-20T11:33:54.019Z,81.46
2022-08-20T11:36:36.337Z,78.37
2022-08-20T11:37:36.329Z,79.46
2022-08-20T11:38:36.309Z,77.43
2022-08-20T11:39:39.847Z,77.37
2022-08-20T11:40:36.281Z,79.63
2022-08-20T11:41:36.269Z,76.83
2022-08-20T11:42:44.572Z,76.96
2022-08-20T11:43:36.259Z,75.07
2022-08-20T11:44:36.247Z,75.60
2022-08-20T11:45:37.394Z,75.64
2022-08-20T11:46:36.201Z,76.10
2022-08-20T11:49:18.389Z,78.29
2022-08-20T11:50:19.618Z,79.25
2022-08-20T11:51:18.325Z,75.43
2022-08-20T11:52:18.333Z,73.34
2022-08-20T11:53:18.303Z,76.29
2022-08-20T11:54:18.321Z,72.67
2022-08-20T11:55:18.270Z,72.64
2022-08-20T11:56:18.255Z,70.75
2022-08-20T11:59:00.356Z,73.00
2022-08-20T12:00:00.356Z,74.40
2022-08-20T12:01:00.347Z,74.00
2022-08-20T12:02:02.340Z,72.71
2022-08-20T12:03:00.567Z,73.97
2022-08-20T12:04:00.285Z,75.72
2022-08-20T12:05:00.269Z,74.06
2022-08-20T12:06:00.262Z,73.82
2022-08-20T12:07:00.616Z,72.60
2022-08-20T12:08:00.248Z,69.49
2022-08-20T12:09:00.223Z,68.60
2022-08-20T12:10:00.215Z,68.99
2022-08-20T12:11:00.230Z,69.43
2022-08-20T12:12:00.208Z,68.66
2022-08-20T12:13:00.333Z,69.16
2022-08-20T12:14:00.163Z,69.95
2022-08-20T12:15:00.147Z,71.94
2022-08-20T12:16:00.141Z,70.45
2022-08-20T12:17:00.114Z,68.80
2022-08-20T12:18:00.147Z,70.42
2022-08-20T12:19:00.085Z,71.98
2022-08-20T12:20:00.087Z,71.94
2022-08-20T12:21:00.063Z,71.61
2022-08-20T12:22:00.063Z,70.85
2022-08-20T12:23:00.057Z,71.45
2022-08-20T12:24:00.036Z,69.69
2022-08-20T12:25:00.022Z,70.48
2022-08-20T12:26:00.132Z,69.16
2022-08-20T12:26:59.995Z,67.77
2022-08-20T12:27:59.992Z,70.75
2022-08-20T12:28:59.975Z,68.57
2022-08-20T12:30:00.002Z,68.27
2022-08-20T12:30:59.963Z,68.46
2022-08-20T12:31:59.960Z,70.32
2022-08-20T12:32:59.944Z,68.20
2022-08-20T12:33:59.921Z,68.10
2022-08-20T12:34:59.928Z,65.06
2022-08-20T12:35:59.901Z,63.40
2022-08-20T12:36:59.880Z,66.81
2022-08-20T12:37:59.856Z,66.71
2022-08-20T12:38:59.850Z,69.09
2022-08-20T12:39:59.929Z,69.59
2022-08-20T12:40:59.820Z,68.10
2022-08-20T12:41:59.829Z,66.94
2022-08-20T12:42:59.797Z,65.61
2022-08-20T12:43:59.782Z,65.78
2022-08-20T12:44:59.769Z,68.53
2022-08-20T12:45:59.759Z,69.66
2022-08-20T12:47:00.919Z,68.04
2022-08-20T12:47:59.772Z,68.07
2022-08-20T12:48:59.732Z,65.49
2022-08-20T12:49:59.705Z,64.59
2022-08-20T12:50:59.700Z,63.54
2022-08-20T12:51:59.705Z,67.14
2022-08-20T12:52:59.677Z,65.75
2022-08-20T12:53:59.676Z,64.63
2022-08-20T12:54:59.652Z,63.51
2022-08-20T12:55:59.639Z,60.64
2022-08-20T12:56:59.620Z,62.78
2022-08-20T12:57:59.609Z,64.14
2022-08-20T12:58:59.612Z,61.36